Time;durP1;ratioP1;P1;durP2;ratioP2;P2;SDS_P1;SDS_P2;PMS_P1;PMS_P2;Temp;Humidity;BMP_temperature;BMP_pressure;BME280_temperature;BME280_humidity;BME280_pressure;Samples;Min_cycle;Max_cycle;Signal;HPM_P1;HPM_P2
2021/01/20 00:00:08;;;;;;;0.00;0.00;;;16.70;69.10;;;;;;4198741;28;20053;-41
2021/01/20 00:02:29;;;;;;;0.00;0.00;;;16.70;69.00;;;;;;4198017;28;20072;-46
2021/01/20 00:04:50;;;;;;;0.03;0.03;;;16.70;69.00;;;;;;4198141;28;20441;-41
2021/01/20 00:07:12;;;;;;;0.10;0.10;;;16.80;68.50;;;;;;4198530;28;20083;-40
2021/01/20 00:09:33;;;;;;;0.20;0.20;;;17.00;67.80;;;;;;4198722;28;20052;-40
2021/01/20 00:11:54;;;;;;;0.00;0.00;;;17.20;67.10;;;;;;4197956;28;20149;-40
2021/01/20 00:14:15;;;;;;;0.00;0.00;;;17.20;66.60;;;;;;4197983;28;20127;-41
2021/01/20 00:16:35;;;;;;;0.00;0.00;;;17.20;66.50;;;;;;4197890;28;20075;-40
2021/01/20 00:18:56;;;;;;;0.00;0.00;;;17.20;66.50;;;;;;4197521;28;20056;-41
2021/01/20 00:21:18;;;;;;;0.57;0.57;;;17.20;66.70;;;;;;4198419;28;20106;-41
2021/01/20 00:23:39;;;;;;;0.00;0.00;;;17.10;66.80;;;;;;4198129;28;20156;-41
2021/01/20 00:26:00;;;;;;;33.47;1.98;;;17.00;67.00;;;;;;4198042;28;20415;-41
2021/01/20 00:28:21;;;;;;;0.00;0.00;;;17.00;67.40;;;;;;4198062;28;20084;-41
2021/01/20 00:30:42;;;;;;;0.43;0.43;;;16.90;67.40;;;;;;4198036;28;20508;-41
2021/01/20 00:33:03;;;;;;;0.10;0.10;;;16.90;67.70;;;;;;4196093;28;20048;-41
2021/01/20 00:35:25;;;;;;;0.05;0.05;;;16.90;67.90;;;;;;4197831;28;20540;-41
2021/01/20 00:37:46;;;;;;;0.00;0.00;;;16.80;68.10;;;;;;4198130;28;20126;-41
2021/01/20 00:40:08;;;;;;;0.13;0.13;;;16.70;68.20;;;;;;4197157;28;20057;-41
2021/01/20 00:42:30;;;;;;;0.73;0.73;;;16.70;68.40;;;;;;4197523;28;20128;-41
2021/01/20 00:44:51;;;;;;;1.08;1.08;;;16.70;68.30;;;;;;4197693;28;20048;-42
2021/01/20 00:47:12;;;;;;;;;;;16.80;68.10;;;;;;4197705;28;20045;-41
2021/01/20 00:49:33;;;;;;;0.45;0.45;;;16.90;67.80;;;;;;4196483;28;20428;-41
2021/01/20 00:51:54;;;;;;;4.85;1.17;;;17.00;67.50;;;;;;4196446;28;20135;-41
2021/01/20 00:54:15;;;;;;;0.00;0.00;;;17.10;67.90;;;;;;4179611;28;20498;-42
2021/01/20 00:56:38;;;;;;;0.00;0.00;;;17.30;66.20;;;;;;4194439;28;20187;-41
2021/01/20 00:58:58;;;;;;;0.00;0.00;;;17.40;65.70;;;;;;4206263;28;20164;-42
2021/01/20 01:01:20;;;;;;;;;;;17.50;65.40;;;;;;4196816;28;20098;-41
2021/01/20 01:03:41;;;;;;;0.15;0.15;;;17.50;65.50;;;;;;4197857;28;20044;-42
2021/01/20 01:06:02;;;;;;;0.00;0.00;;;17.40;65.70;;;;;;4197705;28;20055;-41
2021/01/20 01:08:25;;;;;;;0.20;0.20;;;17.30;65.80;;;;;;4196271;28;20131;-41
2021/01/20 01:10:47;;;;;;;1.75;1.65;;;17.20;66.10;;;;;;4196060;28;20056;-41
2021/01/20 01:13:29;;;;;;;0.52;0.50;;;17.20;66.50;;;;;;4196886;28;20590;-41
2021/01/20 01:16:17;;;;;;;0.00;0.00;;;17.10;66.60;;;;;;4186076;28;20067;-42
2021/01/20 01:18:38;;;;;;;0.00;0.00;;;17.20;66.40;;;;;;4196142;28;20078;-42
2021/01/20 01:20:59;;;;;;;0.00;0.00;;;17.20;66.40;;;;;;4195963;28;20114;-41
2021/01/20 01:23:20;;;;;;;0.00;0.00;;;17.20;66.50;;;;;;4180521;28;20057;-43
2021/01/20 01:25:41;;;;;;;;;;;17.20;67.50;;;;;;4179752;28;20059;-41
2021/01/20 01:28:11;;;;;;;0.00;0.00;;;17.10;66.60;;;;;;4186622;28;19924;-41
2021/01/20 01:30:39;;;;;;;0.00;0.00;;;17.10;66.70;;;;;;4195480;28;20044;-41
2021/01/20 01:33:00;;;;;;;0.65;0.65;;;17.00;66.80;;;;;;4196234;28;20054;-41
2021/01/20 01:35:28;;;;;;;0.00;0.00;;;16.90;67.10;;;;;;4196263;28;20052;-41
2021/01/20 01:37:58;;;;;;;0.10;0.10;;;16.90;67.40;;;;;;4197046;28;20082;-41
2021/01/20 01:40:30;;;;;;;0.00;0.00;;;16.80;67.70;;;;;;4195555;28;20161;-41
2021/01/20 01:43:08;;;;;;;0.10;0.10;;;16.90;67.40;;;;;;4178980;28;20135;-41
2021/01/20 01:45:29;;;;;;;;;;;17.10;66.50;;;;;;4179390;28;20819;-41
2021/01/20 01:47:52;;;;;;;0.20;0.20;;;17.30;66.00;;;;;;4194833;28;19924;-42
2021/01/20 01:50:14;;;;;;;0.00;0.00;;;17.30;65.60;;;;;;4197014;28;20534;-41
2021/01/20 01:52:36;;;;;;;0.10;0.10;;;17.40;65.40;;;;;;4195168;28;20056;-41
2021/01/20 01:55:23;;;;;;;0.00;0.00;;;17.40;65.30;;;;;;4179737;28;20060;-41
2021/01/20 01:57:47;;;;;;;0.00;0.00;;;17.40;65.40;;;;;;4184778;28;20083;-41
2021/01/20 02:00:10;;;;;;;0.00;0.00;;;17.30;65.50;;;;;;4196510;28;20080;-42
2021/01/20 02:02:35;;;;;;;1.02;1.02;;;17.20;65.70;;;;;;4193954;28;20048;-41
2021/01/20 02:04:57;;;;;;;0.00;0.00;;;17.30;65.80;;;;;;4195087;28;20524;-41
2021/01/20 02:07:26;;;;;;;0.00;0.00;;;17.30;65.50;;;;;;4194867;28;20057;-41
2021/01/20 02:09:50;;;;;;;0.82;0.82;;;17.30;65.50;;;;;;4195242;28;20113;-41
2021/01/20 02:12:51;;;;;;;0.00;0.00;;;17.30;65.50;;;;;;4196178;28;20044;-41
2021/01/20 02:15:20;;;;;;;0.20;0.20;;;17.30;66.50;;;;;;4176343;28;20079;-42
2021/01/20 02:17:47;;;;;;;0.80;0.80;;;17.20;65.90;;;;;;4195011;28;20056;-41
2021/01/20 02:20:47;;;;;;;1.17;1.17;;;17.20;65.70;;;;;;4194560;28;20052;-41
2021/01/20 02:23:14;;;;;;;0.00;0.00;;;17.10;66.00;;;;;;4194976;28;20060;-40
2021/01/20 02:26:24;;;;;;;0.63;0.63;;;17.10;66.20;;;;;;4196676;28;20053;-44
2021/01/20 02:29:40;;;;;;;0.20;0.20;;;17.20;66.00;;;;;;4196048;28;20095;-41
2021/01/20 02:32:26;;;;;;;0.00;0.00;;;17.40;64.90;;;;;;4195538;28;20049;-42
2021/01/20 02:34:49;;;;;;;0.55;0.22;;;17.60;64.40;;;;;;4194849;28;20657;-41
2021/01/20 02:37:11;;;;;;;0.03;0.03;;;17.50;64.30;;;;;;4194777;28;20056;-41
2021/01/20 02:40:04;;;;;;;1.05;1.05;;;17.50;64.30;;;;;;4178707;28;20106;-41
2021/01/20 02:43:00;;;;;;;0.00;0.00;;;17.40;64.50;;;;;;4160330;28;20089;-41
2021/01/20 02:45:40;;;;;;;0.00;0.00;;;17.30;64.80;;;;;;4194417;28;20056;-41
2021/01/20 02:48:03;;;;;;;0.00;0.00;;;17.20;65.20;;;;;;4195756;28;20510;-41
2021/01/20 02:50:24;;;;;;;0.00;0.00;;;17.10;65.60;;;;;;4195665;28;20048;-40
2021/01/20 02:52:53;;;;;;;0.47;0.47;;;17.10;65.70;;;;;;4195184;28;20055;-41
2021/01/20 02:55:50;;;;;;;0.08;0.08;;;17.20;65.50;;;;;;4177572;28;20414;-44
2021/01/20 02:58:33;;;;;;;0.08;0.08;;;17.40;64.90;;;;;;4195443;28;20154;-41
2021/01/20 03:01:15;;;;;;;0.20;0.20;;;17.50;64.60;;;;;;4195330;28;20048;-41
2021/01/20 03:03:38;;;;;;;0.47;0.47;;;17.50;64.50;;;;;;4195550;28;20048;-41
2021/01/20 03:05:59;;;;;;;0.30;0.30;;;17.50;64.20;;;;;;4195720;28;20447;-41
2021/01/20 03:08:20;;;;;;;0.00;0.00;;;17.60;63.80;;;;;;4179344;28;20053;-40
2021/01/20 03:10:41;;;;;;;;;;;17.60;63.60;;;;;;4179925;28;20132;-41
2021/01/20 03:13:06;;;;;;;0.22;0.22;;;17.60;63.70;;;;;;4178884;28;19925;-41
2021/01/20 03:15:29;;;;;;;1.00;0.88;;;17.60;63.90;;;;;;4180909;28;20045;-40
2021/01/20 03:17:50;;;;;;;0.80;0.80;;;17.50;64.10;;;;;;4195754;28;20052;-40
2021/01/20 03:20:12;;;;;;;0.00;0.00;;;17.50;64.20;;;;;;4195957;28;20052;-41
2021/01/20 03:22:33;;;;;;;0.00;0.00;;;17.50;64.10;;;;;;4195490;28;20048;-43
2021/01/20 03:24:54;;;;;;;0.00;0.00;;;17.50;64.20;;;;;;4195499;28;20498;-40
2021/01/20 03:27:15;;;;;;;0.30;0.30;;;17.40;64.50;;;;;;4195160;28;20044;-41
2021/01/20 03:29:38;;;;;;;0.10;0.10;;;17.40;64.60;;;;;;4195731;28;20131;-41
2021/01/20 03:31:59;;;;;;;0.00;0.00;;;17.40;64.50;;;;;;4195268;28;20114;-41
2021/01/20 03:34:20;;;;;;;0.52;0.52;;;17.40;64.50;;;;;;4195423;28;20048;-41
2021/01/20 03:36:42;;;;;;;0.30;0.30;;;17.30;64.60;;;;;;4195807;28;20056;-41
2021/01/20 03:39:03;;;;;;;0.15;0.15;;;17.30;64.90;;;;;;4195168;28;20126;-41
2021/01/20 03:41:24;;;;;;;0.10;0.10;;;17.30;64.70;;;;;;4195152;28;20092;-41
2021/01/20 03:43:44;;;;;;;0.05;0.05;;;17.50;64.20;;;;;;4195751;28;20098;-41
2021/01/20 03:46:05;;;;;;;0.20;0.20;;;17.60;63.90;;;;;;4194961;28;20052;-41
2021/01/20 03:48:26;;;;;;;0.00;0.00;;;17.60;63.80;;;;;;4195302;28;20053;-40
2021/01/20 03:50:47;;;;;;;0.10;0.10;;;17.60;63.70;;;;;;4195299;28;20053;-41
2021/01/20 03:53:09;;;;;;;0.10;0.10;;;17.60;63.80;;;;;;4195467;28;20671;-41
2021/01/20 03:55:30;;;;;;;0.28;0.28;;;17.50;63.80;;;;;;4195491;28;20064;-41
2021/01/20 03:57:51;;;;;;;0.00;0.00;;;17.50;64.10;;;;;;4194947;28;20055;-41
2021/01/20 04:00:14;;;;;;;0.55;0.55;;;17.50;64.10;;;;;;4194859;28;20049;-41
2021/01/20 04:02:34;;;;;;;0.00;0.00;;;17.50;64.10;;;;;;4195241;28;20040;-41
2021/01/20 04:05:09;;;;;;;0.15;0.15;;;17.40;64.10;;;;;;4194275;28;20056;-41
2021/01/20 04:07:30;;;;;;;0.00;0.00;;;17.40;64.20;;;;;;4194734;28;20720;-41
2021/01/20 04:09:52;;;;;;;0.20;0.20;;;17.50;64.20;;;;;;4195157;28;20052;-41
2021/01/20 04:12:13;;;;;;;0.40;0.40;;;17.70;63.10;;;;;;4194968;28;20071;-41
2021/01/20 04:14:34;;;;;;;1.17;0.63;;;17.80;62.70;;;;;;4196694;28;20087;-40
2021/01/20 04:16:55;;;;;;;0.20;0.20;;;17.80;62.50;;;;;;4198289;28;20111;-41
2021/01/20 04:19:16;;;;;;;1.17;1.17;;;17.80;62.50;;;;;;4197759;28;20074;-43
2021/01/20 04:21:37;;;;;;;0.45;0.45;;;17.80;62.50;;;;;;4196897;28;20048;-41
2021/01/20 04:24:00;;;;;;;0.25;0.25;;;17.80;62.60;;;;;;4198255;28;20110;-41
2021/01/20 04:26:22;;;;;;;0.10;0.10;;;17.70;62.80;;;;;;4198504;28;20080;-40
2021/01/20 04:28:43;;;;;;;0.10;0.10;;;17.70;63.10;;;;;;4196232;28;20533;-41
2021/01/20 04:31:05;;;;;;;0.00;0.00;;;17.70;62.90;;;;;;4197662;28;20498;-41
2021/01/20 04:33:26;;;;;;;0.75;0.75;;;17.80;62.70;;;;;;4197681;28;20554;-40
2021/01/20 04:35:47;;;;;;;;;;;17.70;62.60;;;;;;4196958;28;20045;-41
2021/01/20 04:38:08;;;;;;;0.00;0.00;;;17.70;62.70;;;;;;4197758;28;19924;-42
2021/01/20 04:40:29;;;;;;;2.53;0.40;;;17.80;62.60;;;;;;4197687;28;20051;-41
2021/01/20 04:42:51;;;;;;;0.47;0.47;;;17.90;62.30;;;;;;4197308;28;20048;-42
2021/01/20 04:45:12;;;;;;;0.00;0.00;;;17.90;62.00;;;;;;4197453;28;20586;-40
2021/01/20 04:47:34;;;;;;;0.08;0.08;;;17.90;62.00;;;;;;4197659;28;20824;-41
2021/01/20 04:49:55;;;;;;;0.00;0.00;;;17.90;61.90;;;;;;4197594;28;20052;-41
2021/01/20 04:52:19;;;;;;;1.58;1.48;;;18.00;61.90;;;;;;4197522;28;20056;-40
2021/01/20 04:54:40;;;;;;;0.65;0.65;;;17.90;61.90;;;;;;4197210;28;20052;-41
2021/01/20 04:57:02;;;;;;;0.20;0.20;;;17.90;62.20;;;;;;4196012;28;20084;-41
2021/01/20 04:59:28;;;;;;;0.10;0.10;;;18.00;61.80;;;;;;4197470;28;20076;-40
2021/01/20 05:01:51;;;;;;;3.83;1.33;;;18.10;62.10;;;;;;4197038;28;20595;-41
2021/01/20 05:04:16;;;;;;;0.35;0.35;;;18.20;61.00;;;;;;4197305;28;20056;-40
2021/01/20 05:06:39;;;;;;;0.38;0.38;;;18.10;60.90;;;;;;4197393;28;20052;-40
2021/01/20 05:09:00;;;;;;;0.38;0.38;;;18.10;61.20;;;;;;4180714;28;20063;-41
2021/01/20 05:11:36;;;;;;;0.70;0.70;;;18.00;61.60;;;;;;4180658;28;20408;-40
2021/01/20 05:14:08;;;;;;;0.10;0.10;;;17.80;62.20;;;;;;4180674;28;20053;-40
2021/01/20 05:16:30;;;;;;;1.38;1.10;;;17.70;62.50;;;;;;4193283;28;20166;-41
2021/01/20 05:18:51;;;;;;;0.10;0.10;;;17.60;62.80;;;;;;4197100;28;20052;-41
2021/01/20 05:21:15;;;;;;;0.00;0.00;;;17.70;62.70;;;;;;4196734;28;20060;-41
2021/01/20 05:23:36;;;;;;;0.22;0.22;;;17.70;62.70;;;;;;4196312;28;20048;-41
2021/01/20 05:25:57;;;;;;;0.10;0.10;;;17.60;62.90;;;;;;4196983;28;20075;-41
2021/01/20 05:28:20;;;;;;;0.32;0.32;;;17.60;63.10;;;;;;4196993;28;20049;-40
2021/01/20 05:30:45;;;;;;;0.00;0.00;;;17.60;63.10;;;;;;4196652;28;20049;-41
2021/01/20 05:33:07;;;;;;;0.00;0.00;;;17.70;62.90;;;;;;4196904;28;20052;-41
2021/01/20 05:35:29;;;;;;;0.32;0.32;;;17.70;62.50;;;;;;4196796;28;20049;-40
2021/01/20 05:37:50;;;;;;;0.00;0.00;;;17.80;62.40;;;;;;4196728;28;20052;-41
2021/01/20 05:40:12;;;;;;;0.17;0.17;;;17.80;62.50;;;;;;4196711;28;20057;-41
2021/01/20 05:42:49;;;;;;;0.40;0.40;;;17.80;62.20;;;;;;4196386;28;20771;-42
2021/01/20 05:45:11;;;;;;;0.05;0.05;;;17.80;62.20;;;;;;4196315;28;20055;-41
2021/01/20 05:47:31;;;;;;;0.65;0.65;;;17.80;62.20;;;;;;4195404;28;20060;-41
2021/01/20 05:50:04;;;;;;;0.00;0.00;;;17.70;62.40;;;;;;4196891;28;20048;-41
2021/01/20 05:52:25;;;;;;;0.00;0.00;;;17.70;62.70;;;;;;4180111;28;20049;-41
2021/01/20 05:54:46;;;;;;;0.40;0.40;;;17.80;62.50;;;;;;4180418;28;20057;-42
2021/01/20 05:57:17;;;;;;;0.40;0.40;;;17.90;61.80;;;;;;4184511;28;20144;-42
2021/01/20 05:59:38;;;;;;;0.22;0.22;;;18.10;61.30;;;;;;4196961;28;20273;-41
2021/01/20 06:01:59;;;;;;;0.43;0.43;;;18.20;60.90;;;;;;4196913;28;20060;-40
2021/01/20 06:04:21;;;;;;;;;;;18.10;60.90;;;;;;4197238;28;20135;-41
2021/01/20 06:06:43;;;;;;;0.00;0.00;;;18.10;61.00;;;;;;4196700;28;19924;-41
2021/01/20 06:09:05;;;;;;;0.10;0.10;;;18.10;61.00;;;;;;4196814;28;20053;-41
2021/01/20 06:11:26;;;;;;;0.00;0.00;;;18.10;61.10;;;;;;4196121;28;20045;-41
2021/01/20 06:13:47;;;;;;;0.17;0.17;;;18.00;61.30;;;;;;4196126;28;20746;-42
2021/01/20 06:16:18;;;;;;;0.15;0.15;;;17.80;61.60;;;;;;4196094;28;20045;-41
2021/01/20 06:18:45;;;;;;;0.00;0.00;;;17.70;62.10;;;;;;4196208;28;20426;-42
2021/01/20 06:21:07;;;;;;;0.00;0.00;;;17.70;62.20;;;;;;4196049;28;20456;-41
2021/01/20 06:23:31;;;;;;;0.00;0.00;;;17.70;62.10;;;;;;4195723;28;20076;-41
2021/01/20 06:26:01;;;;;;;0.63;0.63;;;17.70;62.10;;;;;;4195992;28;20664;-41
2021/01/20 06:28:23;;;;;;;0.00;0.00;;;17.60;62.50;;;;;;4196017;28;20056;-42
2021/01/20 06:30:46;;;;;;;0.20;0.20;;;17.50;62.90;;;;;;4195593;28;20079;-41
2021/01/20 06:33:10;;;;;;;0.05;0.05;;;17.60;62.70;;;;;;4196469;28;20453;-41
2021/01/20 06:35:38;;;;;;;0.00;0.00;;;17.70;62.10;;;;;;4196442;28;20056;-41
2021/01/20 06:37:59;;;;;;;0.30;0.30;;;17.80;62.10;;;;;;4194786;28;20048;-41
2021/01/20 06:40:48;;;;;;;0.55;0.55;;;17.80;61.80;;;;;;4195803;28;20106;-41
2021/01/20 06:43:35;;;;;;;0.03;0.03;;;17.90;61.60;;;;;;4195812;28;20083;-41
2021/01/20 06:46:18;;;;;;;0.00;0.00;;;18.10;60.80;;;;;;4195629;28;20422;-41
2021/01/20 06:49:15;;;;;;;0.00;0.00;;;18.30;61.00;;;;;;4195733;28;20055;-41
2021/01/20 06:51:37;;;;;;;0.08;0.08;;;18.40;59.70;;;;;;4195558;28;20418;-42
2021/01/20 06:54:07;;;;;;;0.20;0.20;;;18.40;59.70;;;;;;4195708;28;20048;-42
2021/01/20 06:56:32;;;;;;;0.20;0.20;;;18.30;59.90;;;;;;4195779;28;20063;-42
2021/01/20 06:59:14;;;;;;;0.10;0.10;;;18.20;60.20;;;;;;4195807;28;20417;-42
2021/01/20 07:01:35;;;;;;;0.00;0.00;;;18.10;60.60;;;;;;4195424;28;20528;-41
2021/01/20 07:03:59;;;;;;;;;;;18.00;61.10;;;;;;4195645;28;20437;-41
2021/01/20 07:06:42;;;;;;;1.45;1.35;;;17.90;62.10;;;;;;4194821;28;19928;-41
2021/01/20 07:09:04;;;;;;;0.00;0.00;;;17.80;62.40;;;;;;4195891;28;20056;-41
2021/01/20 07:11:25;;;;;;;0.40;0.40;;;17.90;62.30;;;;;;4195104;28;20056;-42
2021/01/20 07:13:47;;;;;;;0.98;0.82;;;17.90;61.80;;;;;;4190937;28;20049;-41
2021/01/20 07:16:10;;;;;;;0.15;0.15;;;17.90;61.70;;;;;;4195384;28;20131;-41
2021/01/20 07:18:31;;;;;;;0.00;0.00;;;17.90;61.80;;;;;;4195296;28;20056;-41
2021/01/20 07:20:54;;;;;;;0.20;0.20;;;17.80;61.80;;;;;;4195269;28;20056;-41
2021/01/20 07:23:15;;;;;;;0.20;0.20;;;17.80;62.10;;;;;;4194427;28;20667;-42
2021/01/20 07:25:36;;;;;;;0.10;0.10;;;17.70;62.10;;;;;;4195594;28;20057;-41
2021/01/20 07:27:57;;;;;;;0.65;0.65;;;17.60;62.40;;;;;;4180404;28;20134;-41
2021/01/20 07:30:20;;;;;;;0.10;0.10;;;17.70;62.10;;;;;;4195665;28;20532;-42
2021/01/20 07:32:41;;;;;;;0.55;0.55;;;17.90;61.50;;;;;;4195416;28;20045;-41
2021/01/20 07:35:03;;;;;;;0.00;0.00;;;18.00;61.00;;;;;;4194979;28;20052;-41
2021/01/20 07:37:29;;;;;;;0.00;0.00;;;18.00;60.70;;;;;;4194351;28;20052;-42
2021/01/20 07:39:50;;;;;;;0.25;0.25;;;18.00;60.60;;;;;;4195391;28;20052;-41
2021/01/20 07:42:13;;;;;;;0.22;0.22;;;18.00;60.60;;;;;;4195305;28;20495;-42
2021/01/20 07:44:35;;;;;;;0.32;0.32;;;18.00;60.70;;;;;;4195481;28;20059;-41
2021/01/20 07:46:58;;;;;;;0.00;0.00;;;17.90;60.90;;;;;;4195307;28;20048;-41
2021/01/20 07:49:20;;;;;;;0.05;0.05;;;17.80;61.20;;;;;;4196177;28;20048;-41
2021/01/20 07:51:40;;;;;;;0.00;0.00;;;17.80;61.10;;;;;;4198624;28;20052;-42
2021/01/20 07:54:03;;;;;;;0.00;0.00;;;17.80;61.20;;;;;;4198562;28;20048;-41
2021/01/20 07:56:24;;;;;;;0.10;0.10;;;17.70;61.30;;;;;;4198486;28;20063;-41
2021/01/20 07:58:45;;;;;;;;;;;17.70;61.50;;;;;;4199069;28;20086;-42
2021/01/20 08:01:06;;;;;;;0.10;0.10;;;17.70;61.40;;;;;;4198575;28;19926;-41
2021/01/20 08:03:33;;;;;;;0.03;0.03;;;17.80;61.00;;;;;;4197525;28;20040;-42
2021/01/20 08:05:56;;;;;;;0.05;0.05;;;17.90;60.80;;;;;;4198399;28;20045;-41
2021/01/20 08:08:20;;;;;;;0.50;0.50;;;17.90;60.70;;;;;;4198514;28;20056;-41
2021/01/20 08:10:43;;;;;;;0.00;0.00;;;17.80;60.90;;;;;;4198453;28;20049;-42
2021/01/20 08:13:06;;;;;;;0.00;0.00;;;17.80;61.10;;;;;;4198375;28;20048;-42
2021/01/20 08:15:29;;;;;;;0.10;0.10;;;17.70;61.10;;;;;;4198106;28;20053;-42
2021/01/20 08:17:50;;;;;;;0.00;0.00;;;17.90;60.80;;;;;;4198179;28;20102;-42
2021/01/20 08:20:12;;;;;;;0.10;0.10;;;18.10;60.50;;;;;;4198287;28;20577;-42
2021/01/20 08:22:33;;;;;;;0.00;0.00;;;18.10;60.90;;;;;;4197714;28;20138;-42
2021/01/20 08:24:54;;;;;;;3.45;1.05;;;18.10;61.10;;;;;;4181505;28;20084;-45
2021/01/20 08:27:24;;;;;;;2.88;1.25;;;18.00;61.70;;;;;;4181606;28;20053;-43
2021/01/20 08:29:49;;;;;;;0.00;0.00;;;17.90;62.30;;;;;;4181688;28;20544;-42
2021/01/20 08:32:12;;;;;;;0.10;0.10;;;18.00;62.00;;;;;;4192089;28;21221;-44
2021/01/20 08:34:37;;;;;;;0.00;0.00;;;17.90;61.80;;;;;;4194551;28;20498;-43
2021/01/20 08:37:04;;;;;;;0.00;0.00;;;17.90;62.10;;;;;;4195411;28;20503;-44
2021/01/20 08:39:26;;;;;;;0.75;0.75;;;17.70;62.30;;;;;;4198113;28;20102;-42
2021/01/20 08:42:15;;;;;;;0.20;0.20;;;17.60;62.80;;;;;;4190590;28;20059;-42
2021/01/20 08:44:36;;;;;;;1.10;1.10;;;17.50;63.10;;;;;;4195421;28;20463;-42
2021/01/20 08:46:57;;;;;;;0.00;0.00;;;17.60;62.90;;;;;;4197784;28;20052;-42
2021/01/20 08:49:19;;;;;;;0.00;0.00;;;17.70;62.40;;;;;;4181740;28;20495;-42
2021/01/20 08:51:40;;;;;;;0.00;0.00;;;17.80;62.20;;;;;;4192709;28;20052;-43
2021/01/20 08:54:11;;;;;;;1.30;1.20;;;17.80;62.20;;;;;;4197292;28;20079;-41
2021/01/20 08:56:33;;;;;;;1.75;1.48;;;17.70;62.30;;;;;;4197283;28;20098;-42
2021/01/20 08:59:02;;;;;;;0.00;0.00;;;17.60;62.60;;;;;;4190384;28;20423;-42
2021/01/20 09:01:26;;;;;;;0.10;0.10;;;17.50;63.00;;;;;;4190327;28;20076;-42
2021/01/20 09:03:54;;;;;;;0.10;0.10;;;17.40;63.30;;;;;;4193270;28;20048;-47
2021/01/20 09:06:16;;;;;;;1.08;1.08;;;17.30;63.70;;;;;;4193487;28;20126;-43
2021/01/20 09:08:37;;;;;;;0.15;0.15;;;17.10;64.00;;;;;;4197176;28;20049;-42
2021/01/20 09:11:01;;;;;;;0.10;0.10;;;17.00;64.30;;;;;;4197020;28;20056;-42
2021/01/20 09:13:22;;;;;;;0.00;0.00;;;17.00;64.60;;;;;;4196697;28;20212;-42
2021/01/20 09:15:44;;;;;;;;;;;17.10;64.50;;;;;;4182061;28;20064;-42
2021/01/20 09:18:06;;;;;;;0.00;0.00;;;17.00;64.40;;;;;;4193803;28;19926;-42
2021/01/20 09:20:28;;;;;;;0.10;0.10;;;17.10;64.40;;;;;;4197094;28;20503;-40
2021/01/20 09:22:49;;;;;;;0.00;0.00;;;17.00;64.40;;;;;;4195277;28;20506;-40
2021/01/20 09:25:11;;;;;;;0.03;0.03;;;16.90;64.60;;;;;;4185312;28;20127;-42
2021/01/20 09:27:33;;;;;;;0.55;0.55;;;16.90;65.00;;;;;;4196681;28;20052;-40
2021/01/20 09:29:54;;;;;;;0.00;0.00;;;16.80;65.30;;;;;;4196884;28;20056;-40
2021/01/20 09:32:15;;;;;;;0.28;0.28;;;16.70;65.50;;;;;;4196564;28;20053;-40
2021/01/20 09:34:37;;;;;;;0.15;0.15;;;16.60;65.60;;;;;;4196908;28;20040;-40
2021/01/20 09:36:58;;;;;;;0.00;0.00;;;16.60;65.70;;;;;;4196589;28;20846;-40
2021/01/20 09:39:19;;;;;;;;;;;16.60;65.80;;;;;;4197368;28;20465;-40
2021/01/20 09:41:40;;;;;;;0.20;0.20;;;16.60;66.00;;;;;;4189149;28;19932;-40
2021/01/20 09:44:01;;;;;;;0.08;0.08;;;16.50;66.10;;;;;;4196560;28;20418;-40
2021/01/20 09:46:22;;;;;;;0.10;0.10;;;16.50;66.20;;;;;;4196787;28;20135;-40
2021/01/20 09:48:43;;;;;;;0.90;0.90;;;16.50;66.20;;;;;;4196531;28;20118;-40
2021/01/20 09:51:04;;;;;;;4.03;0.98;;;16.50;66.40;;;;;;4187048;28;20045;-40
2021/01/20 09:53:25;;;;;;;0.10;0.10;;;16.40;66.30;;;;;;4196618;28;20055;-41
2021/01/20 09:55:46;;;;;;;0.30;0.30;;;16.40;66.50;;;;;;4187646;28;20461;-40
2021/01/20 09:58:07;;;;;;;0.00;0.00;;;16.30;66.60;;;;;;4184728;28;20119;-40
2021/01/20 10:00:29;;;;;;;0.00;0.00;;;16.30;66.80;;;;;;4187848;28;20494;-40
2021/01/20 10:02:53;;;;;;;0.00;0.00;;;16.20;66.90;;;;;;4195198;28;20048;-41
2021/01/20 10:05:15;;;;;;;0.28;0.28;;;16.20;67.20;;;;;;4195331;28;20063;-41
2021/01/20 10:07:37;;;;;;;0.88;0.85;;;16.10;67.40;;;;;;4180017;28;20506;-40
2021/01/20 10:09:58;;;;;;;0.63;0.50;;;16.10;67.50;;;;;;4192595;28;20601;-41
2021/01/20 10:12:19;;;;;;;0.00;0.00;;;16.00;67.90;;;;;;4203828;28;20532;-41
2021/01/20 10:14:41;;;;;;;0.00;0.00;;;16.00;67.90;;;;;;4195875;28;20492;-40
2021/01/20 10:17:03;;;;;;;0.15;0.15;;;16.20;67.60;;;;;;4196539;28;20134;-40
2021/01/20 10:19:25;;;;;;;0.35;0.35;;;16.40;66.90;;;;;;4179570;28;20057;-40
2021/01/20 10:21:45;;;;;;;0.20;0.20;;;16.50;66.50;;;;;;4179568;28;20495;-40
2021/01/20 10:24:07;;;;;;;;;;;16.50;66.20;;;;;;4185616;28;20051;-40
2021/01/20 10:26:28;;;;;;;0.00;0.00;;;16.50;66.10;;;;;;4192546;28;19960;-40
2021/01/20 10:28:49;;;;;;;0.22;0.22;;;16.50;66.20;;;;;;4186821;28;20052;-42
2021/01/20 10:31:10;;;;;;;0.25;0.25;;;16.50;66.30;;;;;;4193969;28;20059;-41
2021/01/20 10:33:31;;;;;;;0.08;0.08;;;16.50;66.20;;;;;;4190628;28;20048;-42
2021/01/20 10:35:53;;;;;;;0.28;0.28;;;16.50;66.40;;;;;;4190246;28;20075;-41
2021/01/20 10:38:14;;;;;;;0.60;0.60;;;16.40;66.50;;;;;;4193300;28;20131;-41
2021/01/20 10:40:35;;;;;;;0.10;0.10;;;16.40;66.60;;;;;;4192280;28;20110;-41
2021/01/20 10:42:56;;;;;;;0.00;0.00;;;16.30;66.80;;;;;;4189737;28;20543;-41
2021/01/20 10:45:17;;;;;;;0.45;0.45;;;16.30;67.00;;;;;;4192818;28;20136;-41
2021/01/20 10:47:38;;;;;;;0.10;0.10;;;16.20;67.10;;;;;;4192210;28;20052;-41
2021/01/20 10:50:02;;;;;;;;;;;16.20;67.30;;;;;;4195582;28;20127;-41
2021/01/20 10:52:24;;;;;;;0.13;0.13;;;16.10;67.50;;;;;;4190106;28;20031;-41
2021/01/20 10:54:45;;;;;;;;;;;16.10;68.70;;;;;;4192657;28;20053;-41
2021/01/20 10:57:08;;;;;;;0.53;0.53;;;16.00;67.80;;;;;;4188288;28;20313;-40
2021/01/20 10:59:39;;;;;;;2.15;1.98;;;16.00;68.00;;;;;;4189505;28;20298;-41
2021/01/20 11:02:00;;;;;;;3.00;2.80;;;15.90;68.30;;;;;;4189963;28;20106;-41
2021/01/20 11:04:22;;;;;;;0.32;0.32;;;15.90;68.40;;;;;;4195186;28;20067;-41
2021/01/20 11:06:44;;;;;;;3.50;3.20;;;15.80;68.60;;;;;;4190249;28;20044;-41
2021/01/20 11:09:05;;;;;;;0.28;0.28;;;15.80;68.80;;;;;;4187713;28;20126;-41
2021/01/20 11:11:26;;;;;;;0.68;0.68;;;15.90;68.90;;;;;;4186805;28;20166;-41
2021/01/20 11:13:48;;;;;;;9.90;3.08;;;16.00;68.40;;;;;;4186128;28;20052;-41
2021/01/20 11:16:11;;;;;;;0.10;0.10;;;16.10;68.00;;;;;;4188469;28;20087;-40
2021/01/20 11:18:33;;;;;;;0.10;0.10;;;16.20;67.80;;;;;;4190580;28;20053;-41
2021/01/20 11:20:54;;;;;;;0.00;0.00;;;16.20;67.80;;;;;;4189324;28;20076;-41
2021/01/20 11:23:17;;;;;;;2.20;1.38;;;16.10;67.70;;;;;;4193183;28;20599;-41
2021/01/20 11:25:40;;;;;;;0.80;0.80;;;16.10;67.80;;;;;;4191346;28;20076;-45
2021/01/20 11:28:02;;;;;;;1.13;1.13;;;16.10;67.80;;;;;;4190024;28;20410;-41
2021/01/20 11:30:23;;;;;;;;;;;16.10;68.10;;;;;;4192994;28;20048;-42
2021/01/20 11:32:44;;;;;;;5.53;0.95;;;16.00;68.20;;;;;;4193859;28;19964;-42
2021/01/20 11:35:06;;;;;;;0.55;0.55;;;16.00;68.40;;;;;;4191445;28;20594;-41
2021/01/20 11:37:27;;;;;;;4.55;3.30;;;16.00;68.60;;;;;;4189216;28;20055;-41
2021/01/20 11:39:49;;;;;;;3.90;3.63;;;15.90;68.80;;;;;;4192421;28;20053;-41
2021/01/20 11:42:10;;;;;;;2.83;1.90;;;15.90;68.80;;;;;;4191209;28;20059;-41
2021/01/20 11:44:31;;;;;;;2.17;1.63;;;16.00;68.60;;;;;;4195384;28;20073;-41
2021/01/20 11:46:52;;;;;;;0.75;0.75;;;16.10;68.30;;;;;;4195636;28;20062;-42
2021/01/20 11:49:14;;;;;;;3.25;1.38;;;16.10;68.10;;;;;;4197923;28;20079;-41
2021/01/20 11:51:35;;;;;;;0.47;0.47;;;16.10;68.00;;;;;;4198903;28;20055;-40
2021/01/20 11:53:56;;;;;;;1.55;1.48;;;16.10;68.00;;;;;;4198797;28;20052;-40
2021/01/20 11:56:20;;;;;;;0.20;0.20;;;16.10;68.00;;;;;;4181784;28;20155;-41
2021/01/20 11:58:41;;;;;;;1.17;1.13;;;16.10;68.20;;;;;;4203307;28;20048;-41
2021/01/20 12:01:02;;;;;;;1.90;1.75;;;16.00;68.20;;;;;;4198318;28;20053;-41
2021/01/20 12:03:24;;;;;;;3.17;2.50;;;16.00;68.40;;;;;;4197866;28;20060;-41
2021/01/20 12:05:45;;;;;;;0.00;0.00;;;15.90;68.60;;;;;;4198380;28;20409;-41
2021/01/20 12:08:06;;;;;;;;;;;15.90;68.70;;;;;;4198968;28;20526;-41
2021/01/20 12:10:27;;;;;;;12.80;0.80;;;15.90;69.00;;;;;;4198209;28;20340;-41
2021/01/20 12:12:49;;;;;;;0.57;0.57;;;15.80;69.10;;;;;;4198341;28;20056;-40
2021/01/20 12:15:11;;;;;;;0.50;0.50;;;15.80;69.30;;;;;;4199887;28;21024;-43
2021/01/20 12:17:34;;;;;;;3.40;2.05;;;15.80;69.50;;;;;;4184661;28;20071;-40
2021/01/20 12:19:55;;;;;;;0.17;0.17;;;15.90;69.20;;;;;;4195894;28;20102;-43
2021/01/20 12:22:17;;;;;;;0.98;0.98;;;16.00;68.70;;;;;;4190521;28;20064;-40
2021/01/20 12:24:38;;;;;;;2.13;1.95;;;16.10;68.30;;;;;;4197814;28;20242;-42
2021/01/20 12:26:59;;;;;;;0.40;0.40;;;16.20;68.00;;;;;;4194882;28;20049;-41
2021/01/20 12:29:21;;;;;;;0.10;0.10;;;16.20;67.80;;;;;;4181286;28;20491;-41
2021/01/20 12:31:42;;;;;;;2.45;1.42;;;16.20;67.70;;;;;;4188592;28;20052;-41
2021/01/20 12:34:03;;;;;;;0.80;0.77;;;16.40;67.20;;;;;;4197211;28;20060;-41